Time;durP1;ratioP1;P1;durP2;ratioP2;P2;SDS_P1;SDS_P2;PMS_P1;PMS_P2;Temp;Humidity;BMP_temperature;BMP_pressure;BME280_temperature;BME280_humidity;BME280_pressure;Samples;Min_cycle;Max_cycle;Signal;HPM_P1;HPM_P2
2022/03/16 00:01:37;;;;;;;7.60;5.05;;;12.70;90.40;;;;;;5113020;27;20047;-85
2022/03/16 00:04:03;;;;;;;6.57;4.55;;;12.70;90.40;;;;;;5131722;27;20042;-85
2022/03/16 00:06:28;;;;;;;9.40;4.47;;;12.70;90.40;;;;;;5133465;27;20015;-85
2022/03/16 00:08:54;;;;;;;9.57;5.30;;;12.60;90.40;;;;;;5129289;27;20084;-85
2022/03/16 00:11:20;;;;;;;7.72;5.40;;;12.60;90.40;;;;;;5131248;27;20038;-85
2022/03/16 00:13:45;;;;;;;7.93;4.85;;;12.60;90.30;;;;;;5112867;27;20070;-85
2022/03/16 00:16:11;;;;;;;9.00;5.32;;;12.60;90.70;;;;;;5138398;27;20023;-85
2022/03/16 00:18:37;;;;;;;8.15;4.63;;;12.60;90.40;;;;;;5132472;27;20027;-85
2022/03/16 00:21:03;;;;;;;7.65;4.72;;;12.60;90.70;;;;;;5131788;27;20490;-85
2022/03/16 00:23:28;;;;;;;6.35;4.90;;;12.50;90.50;;;;;;5131097;27;20023;-85
2022/03/16 00:25:54;;;;;;;8.60;4.70;;;12.50;90.50;;;;;;5131121;27;20019;-86
2022/03/16 00:28:20;;;;;;;6.85;4.72;;;12.50;90.80;;;;;;5131362;27;20019;-85
2022/03/16 00:30:45;;;;;;;7.55;4.78;;;12.50;90.90;;;;;;5130930;27;20038;-86
2022/03/16 00:33:11;;;;;;;9.02;4.65;;;12.60;90.90;;;;;;5133262;27;20450;-85
2022/03/16 00:35:38;;;;;;;7.75;4.53;;;12.50;90.70;;;;;;5130533;27;20023;-86
2022/03/16 00:38:04;;;;;;;6.60;5.05;;;12.50;90.60;;;;;;5130871;27;20023;-86
2022/03/16 00:40:32;;;;;;;8.40;5.30;;;12.50;90.90;;;;;;5131085;27;20031;-85
2022/03/16 00:42:58;;;;;;;7.03;4.95;;;12.50;90.70;;;;;;5114563;28;20023;-85
2022/03/16 00:45:24;;;;;;;7.72;5.03;;;12.50;90.70;;;;;;5133043;27;20122;-85
2022/03/16 00:47:50;;;;;;;7.65;4.82;;;12.50;90.80;;;;;;5112765;28;20118;-86
2022/03/16 00:50:16;;;;;;;7.10;4.25;;;12.50;90.90;;;;;;5125329;27;20039;-85
2022/03/16 00:52:41;;;;;;;8.05;5.10;;;12.50;90.80;;;;;;5119351;28;20027;-86
2022/03/16 00:55:07;;;;;;;5.50;4.40;;;12.40;90.60;;;;;;5112686;28;20027;-86
2022/03/16 00:57:33;;;;;;;8.95;4.68;;;12.40;90.60;;;;;;5132522;27;20015;-86
2022/03/16 00:59:59;;;;;;;6.35;4.60;;;12.40;90.60;;;;;;5130470;27;20102;-88
2022/03/16 01:02:25;;;;;;;8.45;5.00;;;12.40;90.80;;;;;;5112994;28;20019;-88
2022/03/16 01:04:51;;;;;;;7.13;4.05;;;12.30;90.80;;;;;;5130915;27;20015;-87
2022/03/16 01:07:17;;;;;;;7.25;4.82;;;12.40;90.90;;;;;;5130995;27;20033;-87
2022/03/16 01:09:42;;;;;;;10.60;4.60;;;12.30;91.30;;;;;;5131750;27;20019;-87
2022/03/16 01:12:09;;;;;;;6.93;4.20;;;12.30;90.90;;;;;;5132692;27;20030;-88
2022/03/16 01:14:34;;;;;;;8.90;4.70;;;12.30;91.00;;;;;;5130945;27;20019;-88
2022/03/16 01:17:00;;;;;;;7.57;4.10;;;12.30;91.00;;;;;;5130924;27;20072;-88
2022/03/16 01:19:26;;;;;;;6.78;4.30;;;12.30;91.00;;;;;;5131311;27;20046;-89
2022/03/16 01:21:53;;;;;;;7.90;4.43;;;12.30;91.00;;;;;;5115979;27;20400;-89
2022/03/16 01:24:19;;;;;;;8.32;4.80;;;12.30;91.00;;;;;;5119468;27;20019;-90
2022/03/16 01:26:45;;;;;;;8.18;4.78;;;12.30;90.90;;;;;;5135564;27;20023;-89
2022/03/16 01:29:11;;;;;;;5.50;4.43;;;12.30;90.60;;;;;;5135288;27;20011;-89
2022/03/16 01:31:36;;;;;;;7.03;4.70;;;12.30;91.00;;;;;;5135078;27;20146;-88
2022/03/16 01:34:03;;;;;;;5.10;3.78;;;12.30;91.10;;;;;;5134274;27;20064;-89
2022/03/16 01:36:28;;;;;;;8.73;4.65;;;12.30;90.90;;;;;;5118999;27;20089;-89
2022/03/16 01:38:54;;;;;;;6.28;4.25;;;12.20;90.90;;;;;;5135157;27;20055;-88
2022/03/16 01:41:20;;;;;;;11.13;4.60;;;12.20;90.90;;;;;;5117006;27;20062;-89
2022/03/16 01:43:45;;;;;;;5.57;4.22;;;12.20;90.70;;;;;;5116860;27;20094;-90
2022/03/16 01:46:12;;;;;;;7.00;4.63;;;12.20;91.00;;;;;;5135016;27;20051;-89
2022/03/16 01:48:37;;;;;;;9.27;4.22;;;12.20;91.00;;;;;;5135614;27;20456;-89
2022/03/16 01:51:04;;;;;;;6.05;4.35;;;12.10;90.80;;;;;;5135824;27;20059;-87
2022/03/16 01:53:30;;;;;;;7.80;4.13;;;12.20;90.80;;;;;;5134277;27;20027;-87
2022/03/16 01:55:55;;;;;;;8.00;4.40;;;12.20;90.90;;;;;;5115858;27;20023;-86
2022/03/16 01:58:21;;;;;;;11.25;4.45;;;12.10;91.10;;;;;;5115902;27;20468;-85
2022/03/16 02:00:47;;;;;;;6.30;4.35;;;12.20;91.10;;;;;;5115781;27;20019;-86
2022/03/16 02:03:13;;;;;;;7.10;4.50;;;12.20;90.90;;;;;;5135758;27;20031;-85
2022/03/16 02:05:39;;;;;;;8.25;4.35;;;12.10;91.00;;;;;;5114106;27;20023;-86
2022/03/16 02:08:07;;;;;;;8.02;4.22;;;12.10;91.30;;;;;;5115553;27;20544;-86
2022/03/16 02:10:33;;;;;;;5.15;4.53;;;12.20;91.20;;;;;;5115415;27;20523;-84
2022/03/16 02:12:59;;;;;;;6.65;3.88;;;12.10;91.00;;;;;;5134122;27;20024;-86
2022/03/16 02:15:25;;;;;;;8.32;4.68;;;12.10;91.20;;;;;;5136007;27;20028;-86
2022/03/16 02:17:55;;;;;;;6.45;4.45;;;12.00;91.10;;;;;;5115015;27;20511;-86
2022/03/16 02:20:21;;;;;;;7.65;4.78;;;12.10;91.10;;;;;;5115977;27;20103;-90
2022/03/16 02:23:01;;;;;;;7.65;4.85;;;12.00;91.10;;;;;;5134917;27;20038;-91
2022/03/16 02:25:29;;;;;;;7.63;4.68;;;12.00;91.20;;;;;;5116727;27;20030;-90
2022/03/16 02:27:56;;;;;;;6.40;4.38;;;12.00;91.30;;;;;;5116606;27;20046;-90
2022/03/16 02:30:24;;;;;;;5.45;4.10;;;12.00;91.50;;;;;;5118703;27;20034;-91
2022/03/16 02:32:50;;;;;;;6.75;4.30;;;12.00;91.40;;;;;;5114485;27;20042;-90
2022/03/16 02:35:16;;;;;;;6.53;4.10;;;12.00;91.40;;;;;;5132781;27;20023;-91
2022/03/16 02:37:42;;;;;;;6.72;4.32;;;12.00;91.30;;;;;;5133461;27;20042;-91
2022/03/16 02:40:10;;;;;;;7.55;4.40;;;12.00;91.40;;;;;;5116445;27;20034;-91
2022/03/16 02:42:37;;;;;;;7.80;4.53;;;11.90;91.40;;;;;;5135764;27;20019;-91
2022/03/16 02:45:05;;;;;;;9.68;4.30;;;11.90;91.30;;;;;;5135565;27;20087;-91
2022/03/16 02:47:31;;;;;;;7.95;4.30;;;11.90;91.50;;;;;;5134094;27;20034;-90
2022/03/16 02:49:57;;;;;;;6.45;4.03;;;11.90;91.80;;;;;;5134193;27;20483;-90
2022/03/16 02:52:22;;;;;;;7.47;4.57;;;11.90;91.60;;;;;;5133696;27;20106;-87
2022/03/16 02:54:49;;;;;;;6.13;4.35;;;11.90;91.40;;;;;;5114906;27;20407;-87
2022/03/16 02:57:16;;;;;;;7.57;4.28;;;11.90;91.20;;;;;;5135320;27;20083;-87
2022/03/16 02:59:42;;;;;;;6.50;4.25;;;11.90;91.50;;;;;;5133307;27;20030;-86
2022/03/16 03:02:09;;;;;;;5.85;4.38;;;11.80;91.50;;;;;;5132514;27;20015;-86
2022/03/16 03:04:34;;;;;;;9.13;4.68;;;11.80;91.20;;;;;;5113691;27;20034;-87
2022/03/16 03:07:00;;;;;;;6.35;4.05;;;11.80;91.50;;;;;;5114302;27;20020;-87
2022/03/16 03:09:26;;;;;;;8.77;4.38;;;11.80;91.70;;;;;;5116703;27;20030;-87
2022/03/16 03:11:52;;;;;;;10.85;4.25;;;11.80;91.50;;;;;;5132396;27;20178;-86
2022/03/16 03:14:18;;;;;;;9.75;4.80;;;11.80;91.40;;;;;;5131756;27;20025;-86
2022/03/16 03:16:44;;;;;;;5.43;4.25;;;11.80;91.50;;;;;;5113209;27;20406;-86
2022/03/16 03:19:09;;;;;;;7.45;4.60;;;11.80;91.40;;;;;;5113557;27;20019;-83
2022/03/16 03:21:35;;;;;;;5.78;4.00;;;11.70;91.60;;;;;;5133352;27;20019;-83
2022/03/16 03:24:01;;;;;;;7.97;4.35;;;11.70;91.50;;;;;;5132796;27;20492;-83
2022/03/16 03:26:26;;;;;;;7.10;4.53;;;11.70;91.60;;;;;;5131729;27;20072;-83
2022/03/16 03:28:52;;;;;;;7.50;4.20;;;11.70;91.40;;;;;;5131804;27;20031;-83
2022/03/16 03:31:17;;;;;;;7.68;4.57;;;11.70;91.70;;;;;;5129776;27;20531;-85
2022/03/16 03:33:43;;;;;;;7.28;4.30;;;11.70;91.60;;;;;;5113759;27;20031;-85
2022/03/16 03:36:09;;;;;;;6.93;4.15;;;11.70;91.60;;;;;;5131786;27;20023;-86
2022/03/16 03:38:34;;;;;;;8.82;4.07;;;11.70;91.70;;;;;;5131553;27;20019;-86
2022/03/16 03:41:00;;;;;;;5.32;3.60;;;11.70;91.60;;;;;;5113858;27;20084;-91
2022/03/16 03:43:26;;;;;;;6.93;4.10;;;11.70;91.50;;;;;;5112004;27;20038;-90
2022/03/16 03:45:51;;;;;;;7.63;4.22;;;11.70;91.70;;;;;;5114781;27;20062;-90
2022/03/16 03:48:17;;;;;;;6.38;4.18;;;11.70;91.80;;;;;;5135230;27;20023;-90
2022/03/16 03:50:42;;;;;;;6.15;4.10;;;11.70;91.80;;;;;;5131268;27;20096;-90
2022/03/16 03:53:08;;;;;;;6.90;4.35;;;11.70;91.70;;;;;;5131552;27;20102;-86
2022/03/16 03:55:34;;;;;;;6.25;4.07;;;11.70;91.90;;;;;;5130189;27;20026;-87
2022/03/16 03:57:59;;;;;;;8.43;4.25;;;11.70;91.70;;;;;;5132129;27;20019;-87
2022/03/16 04:00:25;;;;;;;5.80;4.03;;;11.60;91.80;;;;;;5134399;27;20148;-88
2022/03/16 04:02:51;;;;;;;5.10;3.70;;;11.70;91.90;;;;;;5127807;27;20506;-89
2022/03/16 04:05:18;;;;;;;6.22;3.72;;;11.70;91.90;;;;;;5119045;27;20028;-89
2022/03/16 04:07:44;;;;;;;6.07;4.20;;;11.70;92.00;;;;;;5133356;27;20536;-89
2022/03/16 04:10:11;;;;;;;6.90;3.88;;;11.70;91.90;;;;;;5113445;27;20031;-89
2022/03/16 04:12:37;;;;;;;7.38;3.80;;;11.60;91.90;;;;;;5133520;27;20559;-89
2022/03/16 04:15:03;;;;;;;7.43;3.92;;;11.70;92.00;;;;;;5130954;27;20034;-89
2022/03/16 04:17:29;;;;;;;9.40;4.10;;;11.70;91.90;;;;;;5130250;27;20023;-89
2022/03/16 04:19:55;;;;;;;5.38;3.60;;;11.70;91.90;;;;;;5131220;27;20064;-88
2022/03/16 04:22:20;;;;;;;6.65;3.83;;;11.60;92.00;;;;;;5131266;27;20030;-87
2022/03/16 04:24:46;;;;;;;7.05;4.40;;;11.70;92.10;;;;;;5131232;27;20023;-88
2022/03/16 04:27:12;;;;;;;7.75;4.13;;;11.60;92.10;;;;;;5133376;27;20080;-87
2022/03/16 04:29:37;;;;;;;6.75;3.55;;;11.60;91.90;;;;;;5112969;27;20075;-88
2022/03/16 04:32:04;;;;;;;7.30;4.10;;;11.70;92.00;;;;;;5114543;27;20568;-87
2022/03/16 04:34:29;;;;;;;9.10;4.07;;;11.60;92.00;;;;;;5131676;27;20023;-88
2022/03/16 04:36:55;;;;;;;7.30;4.25;;;11.60;91.80;;;;;;5132646;27;20032;-88
2022/03/16 04:39:20;;;;;;;7.38;4.18;;;11.60;91.90;;;;;;5115929;27;20514;-87
2022/03/16 04:41:46;;;;;;;6.20;4.00;;;11.60;92.10;;;;;;5134047;27;20031;-86
2022/03/16 04:44:12;;;;;;;7.05;3.97;;;11.60;91.80;;;;;;5132166;27;20491;-87
2022/03/16 04:46:37;;;;;;;7.18;4.68;;;11.60;91.90;;;;;;5131404;27;20043;-87
2022/03/16 04:49:03;;;;;;;6.03;4.18;;;11.60;91.90;;;;;;5131819;27;20023;-86
2022/03/16 04:51:29;;;;;;;6.00;3.88;;;11.60;91.80;;;;;;5133304;27;20054;-88
2022/03/16 04:53:54;;;;;;;6.40;4.20;;;11.60;91.80;;;;;;5117322;28;20030;-89
2022/03/16 04:56:20;;;;;;;8.13;4.80;;;11.60;92.00;;;;;;5135967;27;20047;-89
2022/03/16 04:58:46;;;;;;;9.50;4.20;;;11.60;91.90;;;;;;5141871;27;20035;-89
2022/03/16 05:01:11;;;;;;;6.10;4.22;;;11.60;91.90;;;;;;5141767;27;20101;-88
2022/03/16 05:03:37;;;;;;;5.00;3.45;;;11.60;92.00;;;;;;5139840;27;20110;-84
2022/03/16 05:06:04;;;;;;;7.03;4.05;;;11.60;92.00;;;;;;5136107;27;20080;-84
2022/03/16 05:08:29;;;;;;;7.32;4.45;;;11.60;91.90;;;;;;5116191;27;20030;-84
2022/03/16 05:10:55;;;;;;;6.28;4.05;;;11.60;92.10;;;;;;5134693;27;20035;-83
2022/03/16 05:13:20;;;;;;;6.65;4.40;;;11.70;92.20;;;;;;5134812;27;20579;-83
2022/03/16 05:15:48;;;;;;;9.05;4.10;;;11.70;91.90;;;;;;5134547;27;20102;-83
2022/03/16 05:18:14;;;;;;;8.00;4.30;;;11.70;92.20;;;;;;5117995;27;20080;-83
2022/03/16 05:20:39;;;;;;;6.28;3.90;;;11.70;92.20;;;;;;5114640;27;20567;-85
2022/03/16 05:23:05;;;;;;;5.57;3.80;;;11.70;92.10;;;;;;5116042;27;20109;-84
2022/03/16 05:25:31;;;;;;;9.50;4.82;;;11.70;92.20;;;;;;5115908;27;20023;-85
2022/03/16 05:27:56;;;;;;;6.75;3.67;;;11.70;92.10;;;;;;5134274;27;20016;-86
2022/03/16 05:30:26;;;;;;;5.60;3.95;;;11.70;92.00;;;;;;5136048;27;20072;-86
2022/03/16 05:32:53;;;;;;;7.15;3.90;;;11.70;92.10;;;;;;5115686;27;20039;-86
2022/03/16 05:35:19;;;;;;;4.97;3.78;;;11.70;92.10;;;;;;5133826;27;20037;-86
2022/03/16 05:37:44;;;;;;;6.70;4.18;;;11.80;92.20;;;;;;5134049;27;20031;-86
2022/03/16 05:40:10;;;;;;;5.78;4.15;;;11.70;92.10;;;;;;5133666;27;20067;-86
2022/03/16 05:42:36;;;;;;;8.43;4.45;;;11.70;92.00;;;;;;5135251;27;20019;-86
2022/03/16 05:45:02;;;;;;;6.25;3.88;;;11.70;92.20;;;;;;5134724;27;20023;-85
2022/03/16 05:47:28;;;;;;;6.50;3.65;;;11.70;92.10;;;;;;5133695;27;20027;-86
2022/03/16 05:49:54;;;;;;;6.05;4.53;;;11.70;92.30;;;;;;5115654;27;20027;-88
2022/03/16 05:52:21;;;;;;;8.30;3.92;;;11.70;92.10;;;;;;5134307;27;20519;-88
2022/03/16 05:54:57;;;;;;;5.65;3.88;;;11.70;92.10;;;;;;5133450;27;20042;-88
2022/03/16 05:57:23;;;;;;;6.40;4.18;;;11.70;92.00;;;;;;5136175;27;20053;-88
2022/03/16 05:59:48;;;;;;;5.07;3.95;;;11.70;92.20;;;;;;5114187;27;20031;-88
2022/03/16 06:02:15;;;;;;;6.28;4.20;;;11.70;92.20;;;;;;5133987;27;20203;-89
2022/03/16 06:04:43;;;;;;;6.70;4.18;;;11.70;92.30;;;;;;5133726;27;20027;-88
2022/03/16 06:07:09;;;;;;;6.95;4.68;;;11.70;92.20;;;;;;5113544;27;20019;-89
2022/03/16 06:09:35;;;;;;;6.10;4.60;;;11.70;92.20;;;;;;5135106;27;20015;-86
2022/03/16 06:12:02;;;;;;;8.57;4.75;;;11.70;92.20;;;;;;5115520;27;20027;-86
2022/03/16 06:14:29;;;;;;;8.57;4.60;;;11.70;92.20;;;;;;5133206;27;20460;-85
2022/03/16 06:16:55;;;;;;;5.78;4.10;;;11.70;92.30;;;;;;5133114;27;20551;-85
2022/03/16 06:19:22;;;;;;;4.75;3.60;;;11.70;92.30;;;;;;5133578;27;20015;-86
2022/03/16 06:21:47;;;;;;;5.45;4.03;;;11.70;92.20;;;;;;5114860;27;20052;-86
2022/03/16 06:24:14;;;;;;;6.93;4.50;;;11.70;92.10;;;;;;5116395;27;20025;-86
2022/03/16 06:26:40;;;;;;;7.03;4.00;;;11.70;92.40;;;;;;5133717;27;20368;-87
2022/03/16 06:29:06;;;;;;;6.30;3.92;;;11.70;92.30;;;;;;5116606;27;20026;-87
2022/03/16 06:31:32;;;;;;;5.00;3.85;;;11.70;92.60;;;;;;5133944;27;20031;-89
2022/03/16 06:33:58;;;;;;;6.95;4.00;;;11.70;92.80;;;;;;5133115;27;20027;-88
2022/03/16 06:36:24;;;;;;;7.60;4.25;;;11.70;92.30;;;;;;5135790;27;20023;-87
2022/03/16 06:38:50;;;;;;;6.47;4.35;;;11.70;92.30;;;;;;5131356;27;20026;-84
2022/03/16 06:41:15;;;;;;;7.40;3.90;;;11.70;92.30;;;;;;5132510;27;20031;-85
2022/03/16 06:43:41;;;;;;;8.57;4.03;;;11.70;92.50;;;;;;5133088;27;20487;-87
2022/03/16 06:46:07;;;;;;;5.15;3.72;;;11.70;92.50;;;;;;5132812;27;20051;-87
2022/03/16 06:48:33;;;;;;;5.32;3.78;;;11.70;92.30;;;;;;5134129;27;20495;-84
2022/03/16 06:50:58;;;;;;;6.50;3.95;;;11.80;92.40;;;;;;5133254;27;20035;-86
2022/03/16 06:53:24;;;;;;;6.80;3.85;;;11.80;92.50;;;;;;5129349;27;20500;-86
2022/03/16 06:55:50;;;;;;;5.72;3.83;;;11.80;92.30;;;;;;5131109;27;20564;-87
2022/03/16 06:58:16;;;;;;;7.10;4.10;;;11.80;92.40;;;;;;5131855;27;20023;-86
2022/03/16 07:00:42;;;;;;;8.48;4.35;;;11.80;92.30;;;;;;5132849;27;20156;-84
2022/03/16 07:03:07;;;;;;;7.50;4.50;;;11.80;92.20;;;;;;5133851;27;20019;-85
2022/03/16 07:05:36;;;;;;;6.05;3.63;;;11.80;92.50;;;;;;5132464;27;20491;-86
2022/03/16 07:08:07;;;;;;;6.68;4.38;;;11.80;92.50;;;;;;5132063;27;20831;-86
2022/03/16 07:10:34;;;;;;;7.03;4.40;;;11.80;92.20;;;;;;5132371;27;20043;-87
2022/03/16 07:13:01;;;;;;;7.63;4.40;;;11.80;92.40;;;;;;5114166;27;20122;-87
2022/03/16 07:15:27;;;;;;;6.53;4.07;;;11.90;92.40;;;;;;5115376;27;20027;-87
2022/03/16 07:17:53;;;;;;;8.65;4.05;;;11.90;92.50;;;;;;5132365;27;20035;-87
2022/03/16 07:20:19;;;;;;;6.30;4.10;;;11.80;92.10;;;;;;5114173;27;20369;-87
2022/03/16 07:22:45;;;;;;;6.47;4.40;;;11.90;92.30;;;;;;5128841;27;20110;-87
2022/03/16 07:25:10;;;;;;;6.18;4.47;;;11.90;92.30;;;;;;5113928;27;20023;-87
2022/03/16 07:27:40;;;;;;;11.88;4.15;;;11.90;92.70;;;;;;5133165;27;20068;-87
2022/03/16 07:30:09;;;;;;;6.72;4.40;;;11.90;92.40;;;;;;5133150;27;20419;-87
2022/03/16 07:32:37;;;;;;;6.95;3.95;;;11.90;92.40;;;;;;5132973;27;20513;-86
2022/03/16 07:35:03;;;;;;;7.78;4.05;;;11.90;92.30;;;;;;5131852;27;20011;-87
2022/03/16 07:37:29;;;;;;;5.70;4.05;;;12.00;92.10;;;;;;5131688;27;20034;-85
2022/03/16 07:39:55;;;;;;;8.50;4.20;;;12.00;92.30;;;;;;5132962;27;20448;-86
2022/03/16 07:42:20;;;;;;;5.25;3.88;;;12.00;92.30;;;;;;5134877;27;20079;-86
2022/03/16 07:44:47;;;;;;;8.52;4.10;;;12.00;92.30;;;;;;5132420;27;20093;-87
2022/03/16 07:47:12;;;;;;;6.50;3.80;;;12.00;92.20;;;;;;5113052;27;20095;-88
2022/03/16 07:49:38;;;;;;;5.70;3.83;;;12.00;92.40;;;;;;5131957;27;20022;-87
2022/03/16 07:52:04;;;;;;;6.18;3.80;;;12.00;92.30;;;;;;5112871;27;20041;-86
2022/03/16 07:54:30;;;;;;;7.13;3.85;;;12.10;92.30;;;;;;5114194;27;20042;-85
2022/03/16 07:56:56;;;;;;;6.35;4.03;;;12.10;92.30;;;;;;5111636;27;20049;-85
2022/03/16 07:59:22;;;;;;;6.32;4.03;;;12.10;92.10;;;;;;5110425;27;20039;-89
2022/03/16 08:01:48;;;;;;;5.65;3.92;;;12.10;92.20;;;;;;5112697;27;20483;-85
2022/03/16 08:04:15;;;;;;;6.20;3.42;;;12.10;92.00;;;;;;5131708;27;20426;-83
2022/03/16 08:06:41;;;;;;;6.10;3.90;;;12.10;92.00;;;;;;5112626;27;20031;-84
2022/03/16 08:09:06;;;;;;;7.18;3.78;;;12.10;92.20;;;;;;5133091;27;20502;-83
2022/03/16 08:11:32;;;;;;;5.38;3.75;;;12.20;92.20;;;;;;5112709;27;20116;-83
2022/03/16 08:13:58;;;;;;;4.18;3.42;;;12.20;91.90;;;;;;5131116;27;20027;-84
2022/03/16 08:16:23;;;;;;;4.60;3.28;;;12.10;91.90;;;;;;5112365;27;20034;-84
2022/03/16 08:18:49;;;;;;;6.65;3.80;;;12.10;92.00;;;;;;5131157;27;20408;-84
2022/03/16 08:21:15;;;;;;;7.22;3.80;;;12.20;92.10;;;;;;5113575;27;20030;-80
2022/03/16 08:23:40;;;;;;;5.00;3.50;;;12.20;92.10;;;;;;5112692;27;20023;-78
2022/03/16 08:26:06;;;;;;;5.47;3.80;;;12.20;92.40;;;;;;5127809;27;20026;-80
2022/03/16 08:28:31;;;;;;;6.95;3.92;;;12.20;92.20;;;;;;5131346;27;20016;-89
2022/03/16 08:30:58;;;;;;;7.00;3.90;;;12.20;92.40;;;;;;5131394;27;20483;-87
2022/03/16 08:33:24;;;;;;;6.28;3.65;;;12.20;92.30;;;;;;5132492;27;20437;-87
2022/03/16 08:35:53;;;;;;;3.75;3.15;;;12.20;92.40;;;;;;5130754;27;20023;-87
2022/03/16 08:38:19;;;;;;;5.72;3.58;;;12.20;92.40;;;;;;5131343;27;20031;-88
2022/03/16 08:40:44;;;;;;;4.55;3.25;;;12.20;92.40;;;;;;5112757;27;20023;-88
2022/03/16 08:43:10;;;;;;;5.50;3.20;;;12.20;92.40;;;;;;5129429;27;20034;-90
2022/03/16 08:45:36;;;;;;;4.78;3.42;;;12.20;92.50;;;;;;5125198;27;20122;-89
2022/03/16 08:48:02;;;;;;;5.65;3.58;;;12.20;92.40;;;;;;5132509;27;20054;-89
2022/03/16 08:50:31;;;;;;;5.20;3.40;;;12.20;92.50;;;;;;5131439;27;20392;-89
2022/03/16 08:52:57;;;;;;;5.97;3.65;;;12.20;92.50;;;;;;5130864;27;20066;-89
2022/03/16 08:55:23;;;;;;;9.30;4.20;;;12.20;92.30;;;;;;5113594;27;20027;-90
2022/03/16 08:57:49;;;;;;;8.07;3.78;;;12.20;92.40;;;;;;5148651;27;20031;-90
2022/03/16 09:00:15;;;;;;;6.55;3.53;;;12.20;92.40;;;;;;5133731;27;20034;-91
2022/03/16 09:02:45;;;;;;;5.13;3.40;;;12.30;92.40;;;;;;5133130;27;20047;-92
2022/03/16 09:05:17;;;;;;;5.82;3.38;;;12.30;92.40;;;;;;5131057;27;20015;-91
2022/03/16 09:07:43;;;;;;;6.30;3.72;;;12.40;92.50;;;;;;5117944;27;20110;-91
2022/03/16 09:10:09;;;;;;;4.85;3.35;;;12.40;92.30;;;;;;5130849;27;20072;-91
2022/03/16 09:12:35;;;;;;;5.50;3.47;;;12.40;92.40;;;;;;5132414;27;20027;-90
2022/03/16 09:15:01;;;;;;;6.90;3.72;;;12.30;92.30;;;;;;5131048;27;20072;-90
2022/03/16 09:17:30;;;;;;;6.72;3.65;;;12.40;92.40;;;;;;5134604;27;20573;-90
2022/03/16 09:19:56;;;;;;;6.43;3.47;;;12.40;92.40;;;;;;5113360;27;20056;-90
2022/03/16 09:22:23;;;;;;;6.82;3.85;;;12.50;92.30;;;;;;5131224;27;20015;-91
2022/03/16 09:24:49;;;;;;;5.80;3.38;;;12.50;92.20;;;;;;5131592;27;20069;-92
2022/03/16 09:27:16;;;;;;;7.53;3.75;;;12.60;92.20;;;;;;5132405;27;20050;-92
2022/03/16 09:29:46;;;;;;;9.02;5.10;;;12.60;92.20;;;;;;5113315;28;20019;-92
2022/03/16 09:32:13;;;;;;;9.43;4.18;;;12.60;92.00;;;;;;5135710;27;20134;-90
2022/03/16 09:34:40;;;;;;;6.18;3.70;;;12.70;92.00;;;;;;5112952;28;20015;-90
2022/03/16 09:37:07;;;;;;;5.82;3.88;;;12.70;92.00;;;;;;5130344;27;20024;-90
2022/03/16 09:39:34;;;;;;;8.68;3.42;;;12.70;92.00;;;;;;5114451;27;20016;-90
2022/03/16 09:42:03;;;;;;;7.53;3.72;;;12.80;92.10;;;;;;5135531;27;20087;-91
2022/03/16 09:44:30;;;;;;;7.95;3.88;;;12.80;91.90;;;;;;5116267;27;20016;-91
2022/03/16 09:46:57;;;;;;;6.78;4.13;;;12.80;92.20;;;;;;5134865;27;20142;-91
2022/03/16 09:49:23;;;;;;;6.40;3.60;;;12.80;91.80;;;;;;5148243;27;20388;-91
2022/03/16 09:51:50;;;;;;;6.90;3.90;;;12.90;91.90;;;;;;5135273;27;20035;-90
2022/03/16 09:54:16;;;;;;;7.72;4.50;;;12.90;91.80;;;;;;5135616;27;20026;-92
2022/03/16 09:56:43;;;;;;;6.88;3.88;;;12.90;91.80;;;;;;5133945;27;20110;-92
2022/03/16 09:59:10;;;;;;;6.45;4.22;;;12.90;91.70;;;;;;5133486;27;20038;-90
2022/03/16 10:01:36;;;;;;;8.27;4.50;;;13.00;91.80;;;;;;5134274;27;20031;-91
2022/03/16 10:04:06;;;;;;;9.32;4.55;;;13.00;91.60;;;;;;5135211;27;20023;-91
2022/03/16 10:06:34;;;;;;;7.72;3.88;;;13.00;91.50;;;;;;5136444;27;20035;-92
2022/03/16 10:15:10;;;;;;;6.95;3.75;;;13.20;91.50;;;;;;5134880;27;20110;-92
2022/03/16 10:18:07;;;;;;;7.22;4.05;;;13.30;91.40;;;;;;5133700;27;20078;-91
2022/03/16 10:20:40;;;;;;;7.95;3.55;;;13.40;91.40;;;;;;5134250;27;20027;-90
2022/03/16 10:23:14;;;;;;;8.73;3.60;;;13.50;91.60;;;;;;5133317;27;20031;-91
2022/03/16 10:25:51;;;;;;;6.13;3.80;;;13.50;91.10;;;;;;5132935;27;20027;-90
2022/03/16 10:28:17;;;;;;;7.07;3.72;;;13.60;90.80;;;;;;5132973;27;20019;-91
2022/03/16 10:31:05;;;;;;;4.65;3.35;;;13.70;90.70;;;;;;5152712;27;20129;-91
2022/03/16 10:33:33;;;;;;;7.28;3.70;;;13.70;90.80;;;;;;5144775;27;20039;-92
2022/03/16 10:36:08;;;;;;;6.35;3.33;;;13.70;90.50;;;;;;5133641;27;20012;-90
2022/03/16 10:38:51;;;;;;;5.75;3.67;;;13.80;90.40;;;;;;5134555;27;20495;-90
2022/03/16 10:46:55;;;;;;;5.25;3.65;;;13.70;90.20;;;;;;5146866;27;20050;-90
2022/03/16 10:49:22;;;;;;;6.47;4.00;;;13.70;90.30;;;;;;5130429;27;20043;-91
2022/03/16 10:52:05;;;;;;;6.68;3.85;;;13.60;90.40;;;;;;5134807;27;20526;-88
2022/03/16 10:54:32;;;;;;;7.63;3.87;;;13.70;90.50;;;;;;5132212;27;20061;-90
2022/03/16 10:57:01;;;;;;;5.90;3.38;;;13.60;90.50;;;;;;5136603;27;20023;-91
2022/03/16 10:59:29;;;;;;;5.50;3.45;;;13.70;90.60;;;;;;5137644;27;20403;-90
2022/03/16 11:02:01;;;;;;;7.93;3.50;;;13.80;90.50;;;;;;5145550;27;20023;-90
2022/03/16 11:04:29;;;;;;;7.35;4.10;;;13.80;90.40;;;;;;5148151;27;20027;-88
2022/03/16 11:06:57;;;;;;;5.65;3.33;;;13.80;90.30;;;;;;5133754;27;20491;-90
2022/03/16 11:09:24;;;;;;;5.72;3.47;;;13.90;90.30;;;;;;5135904;27;20039;-89
2022/03/16 11:14:36;;;;;;;5.88;3.25;;;14.00;90.20;;;;;;5136831;27;20094;-90
2022/03/16 11:17:03;;;;;;;4.63;2.90;;;14.00;90.00;;;;;;5145494;27;20019;-90
2022/03/16 11:19:30;;;;;;;7.07;3.95;;;14.10;90.00;;;;;;5141693;27;20021;-89
2022/03/16 11:22:08;;;;;;;5.43;3.15;;;14.20;89.40;;;;;;5124084;27;20038;-89
2022/03/16 11:24:38;;;;;;;5.97;3.47;;;14.20;89.50;;;;;;5155504;27;20391;-90
2022/03/16 11:27:34;;;;;;;6.90;3.47;;;14.30;89.50;;;;;;5124623;27;20383;-89
2022/03/16 11:30:33;;;;;;;5.90;3.50;;;14.20;89.40;;;;;;5140298;27;20082;-90
2022/03/16 11:33:05;;;;;;;8.25;3.50;;;14.20;89.50;;;;;;5140251;27;20445;-90
2022/03/16 11:35:36;;;;;;;7.70;3.67;;;14.20;89.40;;;;;;5140290;27;20060;-90
2022/03/16 11:38:09;;;;;;;5.43;3.38;;;14.20;89.30;;;;;;5141276;27;20030;-89
2022/03/16 11:40:37;;;;;;;5.20;3.13;;;14.30;89.50;;;;;;5139421;27;20494;-90
2022/03/16 11:43:08;;;;;;;7.43;3.63;;;14.40;89.20;;;;;;5140619;27;20019;-90
2022/03/16 11:45:38;;;;;;;6.40;3.47;;;14.40;89.30;;;;;;5123305;27;20061;-89
2022/03/16 11:48:31;;;;;;;6.28;3.53;;;14.50;88.60;;;;;;5151420;27;20031;-90
2022/03/16 11:51:08;;;;;;;6.50;3.42;;;14.50;89.50;;;;;;5136848;27;20369;-90
2022/03/16 11:54:07;;;;;;;6.10;3.90;;;14.60;88.60;;;;;;5116318;27;20045;-89
2022/03/16 11:56:36;;;;;;;6.82;3.78;;;14.70;88.80;;;;;;5131261;27;20030;-90
2022/03/16 11:59:09;;;;;;;7.25;3.70;;;14.60;87.40;;;;;;5113568;27;20019;-91
2022/03/16 12:01:39;;;;;;;6.38;3.28;;;14.60;87.80;;;;;;5125985;27;20079;-89
2022/03/16 12:04:16;;;;;;;7.60;4.05;;;14.50;88.10;;;;;;5141969;27;20039;-91
2022/03/16 12:07:03;;;;;;;8.10;3.90;;;14.50;88.00;;;;;;5138561;27;20023;-90
2022/03/16 12:09:59;;;;;;;7.63;4.00;;;14.50;88.20;;;;;;5130078;27;20027;-90
2022/03/16 12:15:19;;;;;;;7.85;3.88;;;14.30;88.40;;;;;;5143753;27;20042;-90
2022/03/16 12:17:51;;;;;;;7.88;4.35;;;14.30;88.70;;;;;;5115687;27;20034;-89
2022/03/16 12:20:23;;;;;;;6.25;3.83;;;14.40;88.70;;;;;;5131480;27;20026;-89
2022/03/16 12:22:52;;;;;;;9.40;3.88;;;14.40;88.90;;;;;;5131611;27;20023;-90
2022/03/16 12:25:27;;;;;;;7.47;3.83;;;14.40;88.60;;;;;;5130321;27;20541;-87
2022/03/16 12:31:08;;;;;;;6.38;3.85;;;14.40;89.00;;;;;;5131792;27;20575;-89
2022/03/16 12:33:39;;;;;;;6.20;3.75;;;14.40;89.00;;;;;;5129666;27;20106;-89
2022/03/16 12:36:07;;;;;;;8.02;3.78;;;14.40;89.20;;;;;;5130210;27;20025;-90
2022/03/16 12:38:37;;;;;;;5.47;3.67;;;14.50;89.10;;;;;;5131513;27;20030;-89
2022/03/16 12:43:50;;;;;;;7.75;3.90;;;14.40;89.00;;;;;;5130247;27;20407;-88
2022/03/16 12:46:32;;;;;;;8.43;3.75;;;14.40;88.90;;;;;;5129169;27;20044;-89
2022/03/16 12:49:14;;;;;;;6.05;3.50;;;14.40;89.10;;;;;;5144212;27;20072;-89
2022/03/16 12:51:43;;;;;;;8.95;3.88;;;14.40;89.50;;;;;;5129686;27;20506;-90
2022/03/16 12:54:10;;;;;;;5.10;3.22;;;14.40;89.10;;;;;;5130402;27;20552;-89
2022/03/16 12:56:40;;;;;;;6.18;3.72;;;14.40;90.00;;;;;;5134905;27;20019;-89
2022/03/16 12:59:06;;;;;;;7.78;3.55;;;14.40;89.30;;;;;;5131100;27;20027;-89
2022/03/16 13:01:31;;;;;;;9.77;3.78;;;14.40;88.80;;;;;;5131560;27;20095;-89
2022/03/16 13:04:02;;;;;;;7.00;3.55;;;14.30;88.90;;;;;;5131149;27;20548;-89
2022/03/16 13:06:33;;;;;;;10.68;3.80;;;14.30;89.20;;;;;;5110372;28;20118;-89
2022/03/16 13:09:02;;;;;;;9.00;3.78;;;14.20;89.00;;;;;;5112112;28;20027;-90
2022/03/16 13:11:30;;;;;;;7.53;3.33;;;14.20;89.30;;;;;;5129252;27;20027;-89